This is the latest recevied weather packets stored in our database for station/object DB0RES-5. If no packets are shown the sender has not sent any weather packets the latest 10 day(s).
| Time | Temp. | Humidity | Pressure | Rain* | Wind** | Luminosity | Snow |
|---|---|---|---|---|---|---|---|
| 1777743360 | 22.22° C | 61% | 1015.4 hPa | 0 mm | - | - | - |
| 1777742757 | 22.22° C | 61% | 1015.5 hPa | 0 mm | - | - | - |
| 1777742155 | 22.22° C | 61% | 1015.6 hPa | 0 mm | - | - | - |
| 1777740950 | 22.22° C | 60% | 1016.1 hPa | 0 mm | - | - | - |
| 1777740347 | 22.22° C | 60% | 1016.1 hPa | 0 mm | - | - | - |
| 1777739744 | 22.22° C | 61% | 1016.2 hPa | 0 mm | - | - | - |
| 1777739142 | 22.22° C | 60% | 1016.5 hPa | 0 mm | - | - | - |
| 1777737937 | 24.44° C | 51% | 1016.5 hPa | 0 mm | - | - | - |
| 1777737334 | 25° C | 49% | 1016.8 hPa | 0 mm | - | - | - |
| 1777736732 | 25.56° C | 48% | 1016.8 hPa | 0 mm | - | - | - |
| 1777736129 | 25.56° C | 47% | 1017 hPa | 0 mm | - | - | - |
| 1777735527 | 24.44° C | 51% | 1017 hPa | 0 mm | - | - | - |
| 1777734924 | 24.44° C | 51% | 1017 hPa | 0 mm | - | - | - |
| 1777734321 | 24.44° C | 52% | 1017.1 hPa | 0 mm | - | - | - |
| 1777733719 | 24.44° C | 51% | 1017.3 hPa | 0 mm | - | - | - |
| 1777733116 | 23.89° C | 53% | 1017.6 hPa | 0 mm | - | - | - |
| 1777732574 | 23.89° C | 54% | 1017.5 hPa | 0 mm | - | - | - |
| 1777731971 | 24.44° C | 51% | 1017.7 hPa | 0 mm | - | - | - |
| 1777731369 | 23.89° C | 53% | 1017.8 hPa | 0 mm | - | - | - |
| 1777730766 | 23.89° C | 53% | 1017.9 hPa | 0 mm | - | - | - |
| 1777730164 | 24.44° C | 52% | 1017.9 hPa | 0 mm | - | - | - |
| 1777729561 | 23.89° C | 51% | 1018.1 hPa | 0 mm | - | - | - |
| 1777728958 | 24.44° C | 51% | 1018.2 hPa | 0 mm | - | - | - |
| 1777728356 | 24.44° C | 50% | 1018.2 hPa | 0 mm | - | - | - |
| 1777727753 | 23.89° C | 52% | 1018.3 hPa | 0 mm | - | - | - |
* Rain latest hour (hover to see other rain measurements)
** Current wind speed in m/s (hover to see current wind gust speed)